createdAt,value
2017-06-12T00:00:04.437Z,98571
2017-06-12T00:02:32.507Z,98571
2017-06-12T00:05:00.599Z,98567
2017-06-12T00:07:28.675Z,98556
2017-06-12T00:09:56.770Z,98557
2017-06-12T00:12:24.846Z,98556
2017-06-12T00:14:52.924Z,98551
2017-06-12T00:17:21.023Z,98559
2017-06-12T00:19:49.090Z,98551
2017-06-12T00:22:17.184Z,98553
2017-06-12T00:24:45.263Z,98544
2017-06-12T00:27:13.343Z,98548
2017-06-12T00:29:41.416Z,98553
2017-06-12T00:32:09.504Z,98547
2017-06-12T00:34:37.571Z,98542
2017-06-12T00:37:05.664Z,98541
2017-06-12T00:39:33.735Z,98541
2017-06-12T00:42:01.803Z,98535
2017-06-12T00:44:29.875Z,98534
2017-06-12T00:46:57.966Z,98536
2017-06-12T00:49:26.039Z,98526
2017-06-12T00:51:54.107Z,98521
2017-06-12T00:54:22.951Z,98523
2017-06-12T00:56:51.023Z,98518
2017-06-12T00:59:19.104Z,98520
2017-06-12T01:01:47.175Z,98520
2017-06-12T01:04:15.259Z,98518
2017-06-12T01:06:43.358Z,98514
2017-06-12T01:09:11.431Z,98518
2017-06-12T01:11:39.503Z,98512
2017-06-12T01:14:07.574Z,98523
2017-06-12T01:16:35.660Z,98527
2017-06-12T01:19:04.510Z,98521
2017-06-12T01:21:32.592Z,98521
2017-06-12T01:24:00.736Z,98514
2017-06-12T01:26:28.807Z,98514
2017-06-12T01:28:56.884Z,98507
2017-06-12T01:31:24.978Z,98511
2017-06-12T01:33:53.049Z,98507
2017-06-12T01:36:21.118Z,98520
2017-06-12T01:38:49.198Z,98504
2017-06-12T01:41:17.266Z,98514
2017-06-12T01:43:45.363Z,98515
2017-06-12T01:46:13.424Z,98511
2017-06-12T01:48:41.501Z,98518
2017-06-12T01:51:09.574Z,98521
2017-06-12T01:53:37.642Z,98515
2017-06-12T01:56:05.715Z,98517
2017-06-12T01:58:33.791Z,98519
2017-06-12T02:01:01.871Z,98512
2017-06-12T02:03:29.932Z,98515
2017-06-12T02:05:58.014Z,98517
2017-06-12T02:08:26.087Z,98517
2017-06-12T02:10:54.162Z,98510
2017-06-12T02:13:23.004Z,98507
2017-06-12T02:15:51.082Z,98509
2017-06-12T02:18:19.156Z,98509
2017-06-12T02:20:47.239Z,98513
2017-06-12T02:23:15.311Z,98516
2017-06-12T02:25:43.383Z,98499
2017-06-12T02:28:11.464Z,98501
2017-06-12T02:30:39.532Z,98491
2017-06-12T02:33:07.606Z,98486
2017-06-12T02:35:35.679Z,98484
2017-06-12T02:38:03.763Z,98491
2017-06-12T02:40:31.840Z,98509
2017-06-12T02:42:59.923Z,98510
2017-06-12T02:45:28.002Z,98516
2017-06-12T02:47:56.083Z,98524
2017-06-12T02:50:24.927Z,98524
2017-06-12T02:52:53.078Z,98525
2017-06-12T02:55:21.175Z,98527
2017-06-12T02:57:49.252Z,98513
2017-06-12T03:00:17.339Z,98531
2017-06-12T03:02:45.406Z,98537
2017-06-12T03:05:13.493Z,98525
2017-06-12T03:07:41.555Z,98510
2017-06-12T03:10:27.259Z,98514
2017-06-12T03:12:55.323Z,98506
2017-06-12T03:15:24.168Z,98515
2017-06-12T03:17:52.247Z,98517
2017-06-12T03:20:20.319Z,98521
2017-06-12T03:22:48.403Z,98531
2017-06-12T03:25:16.471Z,98521
2017-06-12T03:27:44.546Z,98530
2017-06-12T03:30:12.727Z,98528
2017-06-12T03:32:40.807Z,98530
2017-06-12T03:35:08.883Z,98530
2017-06-12T03:37:36.958Z,98528
2017-06-12T03:40:05.039Z,98534
2017-06-12T03:42:33.113Z,98538
2017-06-12T03:45:01.183Z,98539
2017-06-12T03:47:29.256Z,98545
2017-06-12T03:49:57.328Z,98540
2017-06-12T03:52:25.399Z,98541
2017-06-12T03:54:53.475Z,98539
2017-06-12T03:57:21.543Z,98540
2017-06-12T03:59:49.606Z,98536
2017-06-12T04:02:17.691Z,98544
2017-06-12T04:04:45.781Z,98540
2017-06-12T04:07:14.627Z,98530
2017-06-12T04:09:42.701Z,98529
2017-06-12T04:12:10.770Z,98522
2017-06-12T04:14:38.842Z,98518
2017-06-12T04:17:06.920Z,98522
2017-06-12T04:19:34.987Z,98519
2017-06-12T04:22:03.080Z,98527
2017-06-12T04:24:31.147Z,98535
2017-06-12T04:26:59.220Z,98531
2017-06-12T04:29:27.295Z,98536
2017-06-12T04:31:55.367Z,98539
2017-06-12T04:34:23.440Z,98539
2017-06-12T04:36:51.513Z,98548
2017-06-12T04:39:19.587Z,98555
2017-06-12T04:41:47.654Z,98543
2017-06-12T04:44:15.731Z,98551
2017-06-12T04:46:45.112Z,98543
2017-06-12T04:49:13.188Z,98542
2017-06-12T04:51:41.287Z,98535
2017-06-12T04:54:09.358Z,98540
2017-06-12T04:56:37.442Z,98545
2017-06-12T04:59:06.271Z,98551
2017-06-12T05:01:34.346Z,98551
2017-06-12T05:04:02.417Z,98543
2017-06-12T05:06:30.494Z,98557
2017-06-12T05:08:58.568Z,98556
2017-06-12T05:11:26.647Z,98536
2017-06-12T05:13:54.731Z,98549
2017-06-12T05:16:22.827Z,98549
2017-06-12T05:18:50.913Z,98557
2017-06-12T05:21:19.759Z,98549
2017-06-12T05:23:47.835Z,98553
2017-06-12T05:26:15.906Z,98544
2017-06-12T05:28:43.981Z,98551
2017-06-12T05:31:12.051Z,98556
2017-06-12T05:33:40.142Z,98553
2017-06-12T05:36:08.219Z,98562
2017-06-12T05:38:36.392Z,98555
2017-06-12T05:41:04.471Z,98556
2017-06-12T05:43:32.540Z,98571
2017-06-12T05:46:00.624Z,98574
2017-06-12T05:48:29.459Z,98558
2017-06-12T05:50:57.531Z,98558
2017-06-12T05:53:25.600Z,98556
2017-06-12T05:55:53.675Z,98566
2017-06-12T05:58:21.775Z,98572
2017-06-12T06:00:49.871Z,98565
2017-06-12T06:03:17.935Z,98564
2017-06-12T06:05:46.017Z,98566
2017-06-12T06:08:14.103Z,98551
2017-06-12T06:10:42.951Z,98552
2017-06-12T06:13:11.031Z,98551
2017-06-12T06:15:39.113Z,98557
2017-06-12T06:18:07.183Z,98555
2017-06-12T06:20:35.251Z,98553
2017-06-12T06:23:03.330Z,98561
2017-06-12T06:25:31.387Z,98568
2017-06-12T06:27:59.475Z,98562
2017-06-12T06:30:27.550Z,98561
2017-06-12T06:32:55.619Z,98569
2017-06-12T06:35:23.711Z,98572
2017-06-12T06:37:52.548Z,98567
2017-06-12T06:40:20.626Z,98559
2017-06-12T06:42:48.699Z,98580
2017-06-12T06:45:16.790Z,98574
2017-06-12T06:47:44.859Z,98566
2017-06-12T06:50:12.939Z,98581
2017-06-12T06:52:41.015Z,98579
2017-06-12T06:55:09.108Z,98583
2017-06-12T06:57:37.942Z,98592
2017-06-12T07:00:06.011Z,98597
2017-06-12T07:02:34.135Z,98591
2017-06-12T07:05:02.207Z,98587
2017-06-12T07:07:30.283Z,98594
2017-06-12T07:09:59.126Z,98598
2017-06-12T07:12:27.214Z,98599
2017-06-12T07:14:55.287Z,98601
2017-06-12T07:17:23.393Z,98603
2017-06-12T07:19:51.463Z,98602
2017-06-12T07:22:20.357Z,98601
2017-06-12T07:24:49.207Z,98609
2017-06-12T07:27:17.280Z,98600
2017-06-12T07:29:45.367Z,98606
2017-06-12T07:32:13.828Z,98602
2017-06-12T07:34:41.902Z,98603
2017-06-12T07:37:10.036Z,98610
2017-06-12T07:39:38.878Z,98611
2017-06-12T07:42:06.952Z,98612
2017-06-12T07:44:35.022Z,98614
2017-06-12T07:47:03.097Z,98610
2017-06-12T07:49:31.188Z,98611
2017-06-12T07:52:00.296Z,98613
2017-06-12T07:54:28.375Z,98621
2017-06-12T07:56:57.474Z,98620
2017-06-12T07:59:26.709Z,98635
2017-06-12T08:01:54.783Z,98625
2017-06-12T08:04:22.858Z,98631
2017-06-12T08:06:50.954Z,98629
2017-06-12T08:09:19.027Z,98621
2017-06-12T08:11:47.094Z,98630
2017-06-12T08:14:15.174Z,98627
2017-06-12T08:16:43.268Z,98631
2017-06-12T08:19:11.335Z,98639
2017-06-12T08:21:39.411Z,98635
2017-06-12T08:24:07.475Z,98640
2017-06-12T08:26:35.547Z,98635
2017-06-12T08:29:03.631Z,98648
2017-06-12T08:31:31.703Z,98650
2017-06-12T08:34:00.555Z,98649
2017-06-12T08:36:28.645Z,98644
2017-06-12T08:38:56.739Z,98656
2017-06-12T08:41:24.830Z,98660
2017-06-12T08:43:52.898Z,98660
2017-06-12T08:46:21.740Z,98658
2017-06-12T08:48:49.815Z,98662
2017-06-12T08:51:17.890Z,98664
2017-06-12T08:53:45.954Z,98675
2017-06-12T08:56:14.031Z,98676
2017-06-12T08:58:42.102Z,98682
2017-06-12T09:01:15.392Z,98676
2017-06-12T09:06:40.981Z,98673
2017-06-12T09:09:18.754Z,98677
2017-06-12T09:11:47.013Z,98686
2017-06-12T09:14:15.267Z,98689
2017-06-12T09:16:43.340Z,98682
2017-06-12T09:19:11.412Z,98685
2017-06-12T09:21:39.487Z,98684
2017-06-12T09:24:07.571Z,98678
2017-06-12T09:26:35.640Z,98674
2017-06-12T09:29:03.728Z,98676
2017-06-12T09:31:31.796Z,98682
2017-06-12T09:33:59.870Z,98683
2017-06-12T09:36:27.964Z,98687
2017-06-12T09:38:56.026Z,98686
2017-06-12T09:41:24.164Z,98698
2017-06-12T09:43:52.234Z,98700
2017-06-12T09:46:20.316Z,98689
2017-06-12T09:48:48.390Z,98696
2017-06-12T09:51:16.503Z,98695
2017-06-12T09:53:44.562Z,98699
2017-06-12T09:56:12.679Z,98706
2017-06-12T09:58:40.756Z,98699
2017-06-12T10:01:08.847Z,98704
2017-06-12T10:03:36.919Z,98706
2017-06-12T10:06:05.012Z,98719
2017-06-12T10:08:33.087Z,98712
2017-06-12T10:11:01.155Z,98707
2017-06-12T10:13:29.227Z,98709
2017-06-12T10:15:57.307Z,98720
2017-06-12T10:18:25.379Z,98707
2017-06-12T10:20:53.443Z,98696
2017-06-12T10:23:21.539Z,98700
2017-06-12T10:25:49.678Z,98697
2017-06-12T10:28:17.743Z,98702
2017-06-12T10:30:45.815Z,98691
2017-06-12T10:33:13.892Z,98685
2017-06-12T10:35:41.963Z,98688
2017-06-12T10:38:10.087Z,98679
2017-06-12T10:40:38.933Z,98685
2017-06-12T10:43:07.009Z,98685
2017-06-12T10:45:35.084Z,98676
2017-06-12T10:48:03.163Z,98690
2017-06-12T10:50:31.238Z,98694
2017-06-12T10:52:59.324Z,98692
2017-06-12T10:55:27.395Z,98698
2017-06-12T10:57:55.467Z,98702
2017-06-12T11:00:23.547Z,98699
2017-06-12T11:02:51.615Z,98703
2017-06-12T11:05:19.706Z,98699
2017-06-12T11:07:47.780Z,98699
2017-06-12T11:10:15.858Z,98705
2017-06-12T11:12:44.690Z,98710
2017-06-12T11:15:12.779Z,98699
2017-06-12T11:17:40.847Z,98705
2017-06-12T11:20:08.924Z,98706
2017-06-12T11:22:38.944Z,98695
2017-06-12T11:25:07.015Z,98708
2017-06-12T11:27:35.086Z,98702
2017-06-12T11:30:03.163Z,98689
2017-06-12T11:32:31.235Z,98694
2017-06-12T11:34:59.298Z,98697
2017-06-12T11:37:27.374Z,98695
2017-06-12T11:39:55.452Z,98683
2017-06-12T11:42:23.527Z,98691
2017-06-12T11:44:51.619Z,98685
2017-06-12T11:47:19.687Z,98691
2017-06-12T11:49:48.787Z,98690
2017-06-12T11:52:16.855Z,98683
2017-06-12T11:54:44.927Z,98681
2017-06-12T11:57:12.991Z,98679
2017-06-12T11:59:41.063Z,98680
2017-06-12T12:02:09.135Z,98681
2017-06-12T12:04:37.198Z,98690
2017-06-12T12:07:05.271Z,98686
2017-06-12T12:09:33.339Z,98690
2017-06-12T12:12:01.413Z,98690
2017-06-12T12:14:29.491Z,98683
2017-06-12T12:16:57.555Z,98688
2017-06-12T12:19:25.626Z,98684
2017-06-12T12:21:53.700Z,98677
2017-06-12T12:24:21.775Z,98684
2017-06-12T12:26:49.845Z,98676
2017-06-12T12:29:17.919Z,98669
2017-06-12T12:31:45.997Z,98684
2017-06-12T12:34:14.075Z,98676
2017-06-12T12:36:42.150Z,98671
2017-06-12T12:39:10.223Z,98665
2017-06-12T12:41:38.294Z,98672
2017-06-12T12:44:06.379Z,98666
2017-06-12T12:46:34.459Z,98666
2017-06-12T12:49:02.532Z,98676
2017-06-12T12:51:31.363Z,98678
2017-06-12T12:53:59.440Z,98671
2017-06-12T12:56:28.287Z,98666
2017-06-12T12:58:56.360Z,98679
2017-06-12T13:01:25.197Z,98675
2017-06-12T13:03:53.276Z,98682
2017-06-12T13:06:21.336Z,98680
2017-06-12T13:08:49.407Z,98684
2017-06-12T13:11:17.479Z,98678
2017-06-12T13:13:45.552Z,98679
2017-06-12T13:16:13.628Z,98678
2017-06-12T13:18:41.700Z,98673
2017-06-12T13:21:09.790Z,98686
2017-06-12T13:23:37.863Z,98678
2017-06-12T13:26:05.924Z,98685
2017-06-12T13:28:34.008Z,98683
2017-06-12T13:31:02.078Z,98673
2017-06-12T13:33:30.160Z,98688
2017-06-12T13:35:58.222Z,98691
2017-06-12T13:38:26.296Z,98690
2017-06-12T13:40:54.367Z,98685
2017-06-12T13:43:22.438Z,98683
2017-06-12T13:45:50.517Z,98687
2017-06-12T13:48:18.587Z,98690
2017-06-12T13:50:46.659Z,98692
2017-06-12T13:53:14.731Z,98692
2017-06-12T13:55:42.803Z,98687
2017-06-12T13:58:10.874Z,98680
2017-06-12T14:00:38.947Z,98680
2017-06-12T14:03:07.027Z,98683
2017-06-12T14:05:35.090Z,98683
2017-06-12T14:08:03.167Z,98695
2017-06-12T14:10:31.234Z,98692
2017-06-12T14:12:59.306Z,98687
2017-06-12T14:15:27.383Z,98690
2017-06-12T14:17:55.454Z,98690
2017-06-12T14:20:23.543Z,98677
2017-06-12T14:22:51.616Z,98683
2017-06-12T14:25:19.690Z,98672
2017-06-12T14:27:47.758Z,98674
2017-06-12T14:30:15.831Z,98680
2017-06-12T14:32:43.903Z,98683
2017-06-12T14:35:11.975Z,98695
2017-06-12T14:37:40.060Z,98696
2017-06-12T14:40:08.128Z,98692
2017-06-12T14:42:36.216Z,98693
2017-06-12T14:45:05.046Z,98700
2017-06-12T14:47:33.120Z,98711
2017-06-12T14:50:01.198Z,98700
2017-06-12T14:52:29.264Z,98722
2017-06-12T14:54:57.338Z,98715
2017-06-12T14:57:25.413Z,98716
2017-06-12T14:59:53.492Z,98715
2017-06-12T15:02:21.555Z,98711
2017-06-12T15:04:49.652Z,98714
2017-06-12T15:07:17.719Z,98712
2017-06-12T15:09:45.795Z,98713
2017-06-12T15:12:13.870Z,98707
2017-06-12T15:14:41.939Z,98711
2017-06-12T15:17:10.019Z,98712
2017-06-12T15:19:38.088Z,98718
2017-06-12T15:22:06.202Z,98714
2017-06-12T15:24:34.279Z,98713
2017-06-12T15:27:02.368Z,98706
2017-06-12T15:29:30.431Z,98713
2017-06-12T15:31:58.500Z,98712
2017-06-12T15:34:26.572Z,98718
2017-06-12T15:36:54.644Z,98711
2017-06-12T15:39:22.711Z,98716
2017-06-12T15:41:50.779Z,98720
2017-06-12T15:44:19.662Z,98713
2017-06-12T15:46:47.723Z,98720
2017-06-12T15:49:15.786Z,98719
2017-06-12T15:51:43.865Z,98721
2017-06-12T15:54:11.931Z,98719
2017-06-12T15:56:40.022Z,98713
2017-06-12T15:59:08.868Z,98718
2017-06-12T16:01:36.968Z,98713
2017-06-12T16:04:05.829Z,98710
2017-06-12T16:06:33.891Z,98717
2017-06-12T16:09:01.969Z,98715
2017-06-12T16:11:30.034Z,98709
2017-06-12T16:13:58.122Z,98709
2017-06-12T16:16:26.191Z,98706
2017-06-12T16:18:54.279Z,98703
2017-06-12T16:21:22.346Z,98712
2017-06-12T16:23:50.419Z,98706
2017-06-12T16:26:18.531Z,98707
2017-06-12T16:28:46.615Z,98711
2017-06-12T16:31:14.698Z,98703
2017-06-12T16:33:42.765Z,98701
2017-06-12T16:36:10.831Z,98707
2017-06-12T16:38:38.906Z,98701
2017-06-12T16:41:07.031Z,98704
2017-06-12T16:43:35.115Z,98701
2017-06-12T16:46:03.198Z,98706
2017-06-12T16:48:31.292Z,98700
2017-06-12T16:51:00.127Z,98710
2017-06-12T16:53:28.199Z,98706
2017-06-12T16:55:56.279Z,98709
2017-06-12T16:58:24.356Z,98712
2017-06-12T17:00:52.431Z,98709
2017-06-12T17:03:21.216Z,98716
2017-06-12T17:05:49.287Z,98714
2017-06-12T17:08:17.361Z,98712
2017-06-12T17:10:45.451Z,98719
2017-06-12T17:13:13.524Z,98720
2017-06-12T17:15:41.611Z,98723
2017-06-12T17:18:09.679Z,98727
2017-06-12T17:20:37.740Z,98728
2017-06-12T17:23:05.815Z,98726
2017-06-12T17:25:33.871Z,98723
2017-06-12T17:28:01.955Z,98733
2017-06-12T17:30:30.031Z,98724
2017-06-12T17:32:58.114Z,98742
2017-06-12T17:35:26.951Z,98750
2017-06-12T17:37:55.022Z,98748
2017-06-12T17:40:23.101Z,98744
2017-06-12T17:42:51.189Z,98740
2017-06-12T17:45:19.266Z,98746
2017-06-12T17:47:47.334Z,98748
2017-06-12T17:50:15.415Z,98739
2017-06-12T17:52:43.484Z,98745
2017-06-12T17:55:11.572Z,98734
2017-06-12T17:57:39.645Z,98738
2017-06-12T18:00:07.728Z,98738
2017-06-12T18:02:35.809Z,98739
2017-06-12T18:05:03.900Z,98740
2017-06-12T18:07:31.975Z,98748
2017-06-12T18:10:00.051Z,98744
2017-06-12T18:12:28.142Z,98744
2017-06-12T18:14:56.227Z,98747
2017-06-12T18:17:24.340Z,98749
2017-06-12T18:19:52.405Z,98755
2017-06-12T18:22:20.472Z,98760
2017-06-12T18:24:48.543Z,98758
2017-06-12T18:27:16.612Z,98752
2017-06-12T18:29:44.687Z,98763
2017-06-12T18:32:12.762Z,98767
2017-06-12T18:34:40.843Z,98766
2017-06-12T18:37:08.911Z,98761
2017-06-12T18:39:37.002Z,98773
2017-06-12T18:42:05.844Z,98774
2017-06-12T18:44:33.915Z,98776
2017-06-12T18:47:01.995Z,98774
2017-06-12T18:49:30.067Z,98775
2017-06-12T18:51:58.143Z,98780
2017-06-12T18:54:26.211Z,98798
2017-06-12T18:56:54.337Z,98804
2017-06-12T18:59:22.434Z,98798
2017-06-12T19:01:50.511Z,98784
2017-06-12T19:04:18.578Z,98799
2017-06-12T19:06:46.675Z,98800
2017-06-12T19:09:14.758Z,98795
2017-06-12T19:11:42.826Z,98806
2017-06-12T19:14:10.911Z,98805
2017-06-12T19:16:38.984Z,98810
2017-06-12T19:19:07.051Z,98809
2017-06-12T19:21:35.124Z,98807
2017-06-12T19:24:03.336Z,98814
2017-06-12T19:26:31.393Z,98823
2017-06-12T19:28:59.474Z,98817
2017-06-12T19:31:28.319Z,98826
2017-06-12T19:33:56.391Z,98826
2017-06-12T19:36:24.471Z,98847
2017-06-12T19:38:52.535Z,98845
2017-06-12T19:41:20.632Z,98850
2017-06-12T19:43:49.479Z,98851
2017-06-12T19:46:17.575Z,98864
2017-06-12T19:51:20.172Z,98870
2017-06-12T19:53:48.242Z,98866
2017-06-12T19:56:16.316Z,98870
2017-06-12T19:58:44.399Z,98872
2017-06-12T20:01:12.476Z,98884
2017-06-12T20:03:40.547Z,98879
2017-06-12T20:06:08.635Z,98889
2017-06-12T20:08:36.706Z,98888
2017-06-12T20:11:04.780Z,98893
2017-06-12T20:13:33.654Z,98890
2017-06-12T20:16:01.741Z,98892
2017-06-12T20:18:29.813Z,98899
2017-06-12T20:20:57.898Z,98898
2017-06-12T20:23:25.971Z,98903
2017-06-12T20:25:54.807Z,98914
2017-06-12T20:28:22.896Z,98911
2017-06-12T20:30:50.963Z,98907
2017-06-12T20:33:19.043Z,98903
2017-06-12T20:35:47.104Z,98919
2017-06-12T20:38:15.199Z,98914
2017-06-12T20:40:43.275Z,98912
2017-06-12T20:43:11.366Z,98919
2017-06-12T20:45:40.209Z,98921
2017-06-12T20:48:08.284Z,98929
2017-06-12T20:50:36.358Z,98922
2017-06-12T20:53:04.435Z,98925
2017-06-12T20:55:32.511Z,98932
2017-06-12T20:58:00.582Z,98939
2017-06-12T21:00:28.671Z,98947
2017-06-12T21:02:56.744Z,98942
2017-06-12T21:05:24.828Z,98942
2017-06-12T21:07:53.665Z,98944
2017-06-12T21:10:21.740Z,98942
2017-06-12T21:12:49.813Z,98939
2017-06-12T21:15:17.887Z,98950
2017-06-12T21:17:45.967Z,98940
2017-06-12T21:20:14.031Z,98947
2017-06-12T21:22:42.119Z,98950
2017-06-12T21:25:10.195Z,98956
2017-06-12T21:27:38.259Z,98956
2017-06-12T21:30:06.342Z,98962
2017-06-12T21:32:34.415Z,98957
2017-06-12T21:35:02.507Z,98960
2017-06-12T21:37:30.575Z,98965
2017-06-12T21:39:58.656Z,98963
2017-06-12T21:42:26.746Z,98975
2017-06-12T21:44:55.629Z,98969
2017-06-12T21:47:24.478Z,98984
2017-06-12T21:49:52.547Z,98975
2017-06-12T21:52:20.629Z,98969
2017-06-12T21:54:48.706Z,98970
2017-06-12T21:57:16.784Z,98970
2017-06-12T21:59:44.846Z,98979
2017-06-12T22:02:12.918Z,98982
2017-06-12T22:04:40.987Z,98994
2017-06-12T22:07:09.121Z,98980
2017-06-12T22:09:37.186Z,98989
2017-06-12T22:12:05.259Z,98988
2017-06-12T22:14:33.331Z,98986
2017-06-12T22:17:01.403Z,98993
2017-06-12T22:19:30.265Z,98990
2017-06-12T22:21:58.335Z,98992
2017-06-12T22:24:26.415Z,98986
2017-06-12T22:26:54.483Z,98982
2017-06-12T22:29:22.566Z,98997
2017-06-12T22:31:51.402Z,98995
2017-06-12T22:34:19.487Z,99008
2017-06-12T22:36:47.571Z,99000
2017-06-12T22:39:15.653Z,99004
2017-06-12T22:41:43.794Z,99000
2017-06-12T22:44:11.864Z,98998
2017-06-12T22:46:39.941Z,99005
2017-06-12T22:49:08.017Z,98998
2017-06-12T22:51:36.111Z,98996
2017-06-12T22:54:04.535Z,99000
2017-06-12T22:56:32.615Z,98991
2017-06-12T22:59:00.691Z,98997
2017-06-12T23:01:28.760Z,99001
2017-06-12T23:03:56.826Z,99001
2017-06-12T23:06:24.899Z,99000
2017-06-12T23:08:53.016Z,99000
2017-06-12T23:11:21.082Z,99003
2017-06-12T23:13:49.166Z,99005
2017-06-12T23:16:17.239Z,99013
2017-06-12T23:18:45.314Z,99008
2017-06-12T23:21:13.414Z,99016
2017-06-12T23:23:42.251Z,99007
2017-06-12T23:26:15.903Z,99011
2017-06-12T23:28:43.968Z,99012
2017-06-12T23:31:12.046Z,99012
2017-06-12T23:33:40.113Z,99028
2017-06-12T23:36:08.191Z,99026
2017-06-12T23:38:36.259Z,99025
2017-06-12T23:41:04.345Z,99023
2017-06-12T23:43:32.430Z,99024
2017-06-12T23:46:00.491Z,99027
2017-06-12T23:48:28.571Z,99029
2017-06-12T23:50:57.399Z,99025
2017-06-12T23:53:25.478Z,99025
2017-06-12T23:55:53.551Z,99031
2017-06-12T23:58:21.635Z,99035
